createdAt,value
2022-12-07T00:01:59.553Z,3.92
2022-12-07T00:04:29.075Z,3.96
2022-12-07T00:06:58.012Z,3.97
2022-12-07T00:09:26.963Z,3.93
2022-12-07T00:11:56.348Z,3.86
2022-12-07T00:14:25.299Z,3.81
2022-12-07T00:16:53.947Z,3.81
2022-12-07T00:19:23.325Z,3.81
2022-12-07T00:21:52.344Z,3.74
2022-12-07T00:24:20.912Z,3.77
2022-12-07T00:26:49.982Z,3.77
2022-12-07T00:29:26.240Z,3.73
2022-12-07T00:31:55.067Z,3.73
2022-12-07T00:34:23.819Z,3.72
2022-12-07T00:36:52.823Z,3.68
2022-12-07T00:39:21.927Z,3.66
2022-12-07T00:41:50.507Z,3.64
2022-12-07T00:44:19.180Z,3.64
2022-12-07T00:46:48.292Z,3.65
2022-12-07T00:49:16.853Z,3.68
2022-12-07T00:51:45.620Z,3.71
2022-12-07T00:54:14.590Z,3.76
2022-12-07T00:56:43.248Z,3.80
2022-12-07T00:59:15.947Z,3.77
2022-12-07T01:01:45.074Z,3.71
2022-12-07T01:04:13.728Z,3.69
2022-12-07T01:06:42.991Z,3.62
2022-12-07T01:09:12.144Z,3.59
2022-12-07T01:11:40.950Z,3.52
2022-12-07T01:14:10.455Z,3.47
2022-12-07T01:16:40.235Z,3.45
2022-12-07T01:19:08.884Z,3.44
2022-12-07T01:21:39.353Z,3.45
2022-12-07T01:24:11.759Z,3.51
2022-12-07T01:26:40.400Z,3.54
2022-12-07T01:29:09.820Z,3.53
2022-12-07T01:31:38.469Z,3.57
2022-12-07T01:34:07.041Z,3.60
2022-12-07T01:36:38.507Z,3.57
2022-12-07T01:39:08.879Z,3.53
2022-12-07T01:41:44.837Z,3.54
2022-12-07T01:44:24.109Z,3.57
2022-12-07T01:46:57.137Z,3.58
2022-12-07T01:49:45.494Z,3.57
2022-12-07T01:52:31.626Z,3.56
2022-12-07T01:55:07.116Z,3.56
2022-12-07T01:57:40.999Z,3.54
2022-12-07T02:00:11.142Z,3.51
2022-12-07T02:02:55.115Z,3.47
2022-12-07T02:05:25.518Z,3.43
2022-12-07T02:07:57.876Z,3.43
2022-12-07T02:10:32.902Z,3.44
2022-12-07T02:13:07.551Z,3.51
2022-12-07T02:16:14.233Z,3.56
2022-12-07T02:18:54.135Z,3.61
2022-12-07T02:21:28.582Z,3.70
2022-12-07T02:24:28.113Z,3.73
2022-12-07T02:27:09.471Z,3.77
2022-12-07T02:29:58.830Z,3.75
2022-12-07T02:32:32.036Z,3.70
2022-12-07T02:35:14.463Z,3.64
2022-12-07T02:37:48.997Z,3.62
2022-12-07T02:40:33.119Z,3.64
2022-12-07T02:43:09.687Z,3.62
2022-12-07T02:45:43.283Z,3.65
2022-12-07T02:48:15.058Z,3.68
2022-12-07T02:50:50.621Z,3.71
2022-12-07T02:53:39.366Z,3.71
2022-12-07T02:56:33.145Z,3.71
2022-12-07T02:59:39.076Z,3.69
2022-12-07T03:02:32.332Z,3.70
2022-12-07T03:05:23.337Z,3.72
2022-12-07T03:08:20.742Z,3.73
2022-12-07T03:11:00.764Z,3.70
2022-12-07T03:13:39.286Z,3.69
2022-12-07T03:16:10.585Z,3.64
2022-12-07T03:18:46.553Z,3.61
2022-12-07T03:21:20.481Z,3.56
2022-12-07T03:23:55.717Z,3.54
2022-12-07T03:26:35.749Z,3.53
2022-12-07T03:29:08.390Z,3.52
2022-12-07T03:31:45.485Z,3.50
2022-12-07T03:34:22.962Z,3.52
2022-12-07T03:36:59.129Z,3.55
2022-12-07T03:39:43.583Z,3.56
2022-12-07T03:42:12.817Z,3.59
2022-12-07T03:44:42.790Z,3.61
2022-12-07T03:47:24.382Z,3.60
2022-12-07T03:50:07.808Z,3.58
2022-12-07T03:53:24.325Z,3.54
2022-12-07T03:55:54.578Z,3.50
2022-12-07T03:58:23.666Z,3.52
2022-12-07T04:00:53.395Z,3.51
2022-12-07T04:03:22.671Z,3.51
2022-12-07T04:05:51.435Z,3.54
2022-12-07T04:08:20.386Z,3.59
2022-12-07T04:10:49.653Z,3.65
2022-12-07T04:13:18.201Z,3.72
2022-12-07T04:15:47.206Z,3.74
2022-12-07T04:18:16.307Z,3.74
2022-12-07T04:20:45.173Z,3.76
2022-12-07T04:23:14.128Z,3.76
2022-12-07T04:25:43.427Z,3.73
2022-12-07T04:28:12.148Z,3.70
2022-12-07T04:30:41.193Z,3.67
2022-12-07T04:33:10.053Z,3.66
2022-12-07T04:35:38.899Z,3.66
2022-12-07T04:38:08.357Z,3.65
2022-12-07T04:40:37.144Z,3.64
2022-12-07T04:43:06.150Z,3.63
2022-12-07T04:45:34.951Z,3.65
2022-12-07T04:48:03.737Z,3.68
2022-12-07T04:50:32.341Z,3.65
2022-12-07T04:53:01.212Z,3.66
2022-12-07T04:55:30.181Z,3.67
2022-12-07T04:57:58.731Z,3.67
2022-12-07T05:00:27.574Z,3.69
2022-12-07T05:02:57.031Z,3.71
2022-12-07T05:05:25.664Z,3.70
2022-12-07T05:07:54.847Z,3.70
2022-12-07T05:10:24.023Z,3.69
2022-12-07T05:12:52.617Z,3.67
2022-12-07T05:15:21.579Z,3.60
2022-12-07T05:17:50.562Z,3.54
2022-12-07T05:20:19.240Z,3.56
2022-12-07T05:22:48.533Z,3.58
2022-12-07T05:25:17.563Z,3.57
2022-12-07T05:27:46.497Z,3.57
2022-12-07T05:30:15.358Z,3.58
2022-12-07T05:32:44.433Z,3.60
2022-12-07T05:35:13.234Z,3.63
2022-12-07T05:37:42.207Z,3.60
2022-12-07T05:40:13.293Z,3.55
2022-12-07T05:42:42.226Z,3.54
2022-12-07T05:45:12.033Z,3.54
2022-12-07T05:47:40.923Z,3.50
2022-12-07T05:50:09.627Z,3.48
2022-12-07T05:52:38.321Z,3.48
2022-12-07T05:55:08.272Z,3.50
2022-12-07T05:57:36.877Z,3.50
2022-12-07T06:00:07.391Z,3.48
2022-12-07T06:02:41.526Z,3.49
2022-12-07T06:05:10.954Z,3.52
2022-12-07T06:07:39.632Z,3.52
2022-12-07T06:10:09.026Z,3.50
2022-12-07T06:12:40.175Z,3.45
2022-12-07T06:15:09.040Z,3.45
2022-12-07T06:17:38.588Z,3.44
2022-12-07T06:20:09.284Z,3.47
2022-12-07T06:22:37.807Z,3.50
2022-12-07T06:25:08.905Z,3.55
2022-12-07T06:27:38.792Z,3.54
2022-12-07T06:30:09.927Z,3.54
2022-12-07T06:32:39.030Z,3.58
2022-12-07T06:35:08.315Z,3.59
2022-12-07T06:37:37.320Z,3.56
2022-12-07T06:40:09.754Z,3.49
2022-12-07T06:42:39.280Z,3.44
2022-12-07T06:45:08.274Z,3.45
2022-12-07T06:47:43.855Z,3.47
2022-12-07T06:50:17.217Z,3.48
2022-12-07T06:52:45.705Z,3.44
2022-12-07T06:55:14.347Z,3.42
2022-12-07T06:57:43.891Z,3.42
2022-12-07T07:00:19.877Z,3.43
2022-12-07T07:02:51.218Z,3.43
2022-12-07T07:05:19.848Z,3.45
2022-12-07T07:08:20.296Z,3.42
2022-12-07T07:10:38.927Z,3.42
2022-12-07T07:13:08.275Z,3.42
2022-12-07T07:15:40.412Z,3.38
2022-12-07T07:18:09.722Z,3.36
2022-12-07T07:20:38.947Z,3.35
2022-12-07T07:23:08.868Z,3.34
2022-12-07T07:25:38.308Z,3.34
2022-12-07T07:28:07.043Z,3.38
2022-12-07T07:30:36.043Z,3.42
2022-12-07T07:33:06.458Z,3.42
2022-12-07T07:35:35.641Z,3.45
2022-12-07T07:38:04.850Z,3.44
2022-12-07T07:40:35.648Z,3.41
2022-12-07T07:43:04.748Z,3.38
2022-12-07T07:45:33.782Z,3.34
2022-12-07T07:48:02.943Z,3.34
2022-12-07T07:50:31.625Z,3.36
2022-12-07T07:53:00.663Z,3.39
2022-12-07T07:55:29.594Z,3.43
2022-12-07T07:57:59.172Z,3.49
2022-12-07T08:00:28.146Z,3.54
2022-12-07T08:02:56.905Z,3.63
2022-12-07T08:05:27.074Z,3.74
2022-12-07T08:07:56.153Z,3.80
2022-12-07T08:10:25.060Z,3.82
2022-12-07T08:13:12.474Z,3.82
2022-12-07T08:15:43.953Z,3.77
2022-12-07T08:18:14.876Z,3.75
2022-12-07T08:20:44.030Z,3.75
2022-12-07T08:23:13.088Z,3.79
2022-12-07T08:25:42.593Z,3.84
2022-12-07T08:28:11.515Z,3.89
2022-12-07T08:30:40.428Z,3.96
2022-12-07T08:33:10.181Z,4.21
2022-12-07T08:35:39.732Z,4.57
2022-12-07T08:38:08.371Z,5.01
2022-12-07T08:40:37.060Z,5.45
2022-12-07T08:43:06.017Z,5.75
2022-12-07T08:45:45.192Z,6.10
2022-12-07T08:48:14.907Z,6.47
2022-12-07T08:50:49.327Z,6.73
2022-12-07T08:53:19.717Z,6.77
2022-12-07T08:55:49.250Z,6.83
2022-12-07T08:58:17.944Z,6.85
2022-12-07T09:01:04.827Z,6.81
2022-12-07T09:03:42.406Z,6.74
2022-12-07T09:06:11.994Z,6.61
2022-12-07T09:08:45.645Z,6.50
2022-12-07T09:11:16.993Z,6.38
2022-12-07T09:13:45.568Z,6.32
2022-12-07T09:16:14.225Z,6.27
2022-12-07T09:18:43.248Z,6.33
2022-12-07T09:21:11.870Z,6.47
2022-12-07T09:23:40.757Z,6.53
2022-12-07T09:26:10.930Z,6.61
2022-12-07T09:28:40.089Z,6.61
2022-12-07T09:31:25.806Z,6.56
2022-12-07T09:34:01.023Z,6.53
2022-12-07T09:36:30.692Z,6.46
2022-12-07T09:39:00.223Z,6.40
2022-12-07T09:41:31.906Z,6.35
2022-12-07T09:44:20.387Z,6.29
2022-12-07T09:46:49.730Z,6.22
2022-12-07T09:49:22.102Z,6.19
2022-12-07T09:52:03.066Z,6.14
2022-12-07T09:54:32.885Z,6.09
2022-12-07T09:57:01.559Z,6.01
2022-12-07T09:59:38.008Z,6.00
2022-12-07T10:02:29.216Z,6.00
2022-12-07T10:04:59.835Z,6.04
2022-12-07T10:07:28.872Z,6.05
2022-12-07T10:09:57.586Z,5.97
2022-12-07T10:12:26.330Z,5.90
2022-12-07T10:15:18.398Z,5.82
2022-12-07T10:17:51.979Z,5.70
2022-12-07T10:20:27.960Z,5.59
2022-12-07T10:23:02.959Z,5.51
2022-12-07T10:25:39.604Z,5.41
2022-12-07T10:28:16.261Z,5.25
2022-12-07T10:31:00.778Z,5.15
2022-12-07T10:34:00.167Z,5.12
2022-12-07T10:36:41.814Z,5.08
2022-12-07T10:39:24.156Z,5.06
2022-12-07T10:41:59.920Z,5.06
2022-12-07T10:44:32.931Z,5.07
2022-12-07T10:47:01.847Z,5.08
2022-12-07T10:50:22.528Z,5.07
2022-12-07T10:53:14.494Z,5.01
2022-12-07T10:56:01.250Z,4.98
2022-12-07T10:58:33.881Z,5.00
2022-12-07T11:01:12.485Z,5.01
2022-12-07T11:04:05.430Z,5.07
2022-12-07T11:06:46.464Z,5.10
2022-12-07T11:10:07.457Z,5.11
2022-12-07T11:12:40.589Z,5.07
2022-12-07T11:15:23.300Z,5.03
2022-12-07T11:18:09.500Z,5.00
2022-12-07T11:21:08.154Z,4.99
2022-12-07T11:23:55.895Z,4.96
2022-12-07T11:26:48.337Z,4.96
2022-12-07T11:29:35.511Z,4.95
2022-12-07T11:32:16.391Z,5.00
2022-12-07T11:34:53.060Z,5.06
2022-12-07T11:37:31.608Z,5.09
2022-12-07T11:40:17.253Z,5.13
2022-12-07T11:42:57.411Z,5.15
2022-12-07T11:45:32.988Z,5.16
2022-12-07T11:48:06.891Z,5.15
2022-12-07T11:51:08.321Z,5.17
2022-12-07T11:53:54.448Z,5.19
2022-12-07T11:56:26.789Z,5.24
2022-12-07T11:58:58.351Z,5.29
2022-12-07T12:01:36.912Z,5.30
2022-12-07T12:04:22.439Z,5.33
2022-12-07T12:06:51.266Z,5.33
2022-12-07T12:09:41.655Z,5.34
2022-12-07T12:15:40.191Z,5.24
2022-12-07T12:18:40.013Z,5.18
2022-12-07T12:21:19.682Z,5.13
2022-12-07T12:23:59.650Z,5.10
2022-12-07T12:26:32.852Z,5.11
2022-12-07T12:29:21.174Z,5.16
2022-12-07T12:32:15.042Z,5.26
2022-12-07T12:34:51.009Z,5.40
2022-12-07T12:37:35.757Z,5.53
2022-12-07T12:40:25.167Z,5.67
2022-12-07T12:42:58.382Z,5.75
2022-12-07T12:45:34.295Z,5.83
2022-12-07T12:48:22.923Z,5.90
2022-12-07T12:51:30.236Z,5.90
2022-12-07T12:54:36.693Z,5.85
2022-12-07T12:57:21.414Z,5.76
2022-12-07T12:59:53.204Z,5.65
2022-12-07T13:02:36.412Z,5.54
2022-12-07T13:05:09.199Z,5.52
2022-12-07T13:07:51.434Z,5.51
2022-12-07T13:10:33.829Z,5.49
2022-12-07T13:13:26.072Z,5.48
2022-12-07T13:16:10.340Z,5.45
2022-12-07T13:18:40.123Z,5.43
2022-12-07T13:21:11.464Z,5.44
2022-12-07T13:23:56.959Z,5.45
2022-12-07T13:26:31.999Z,5.46
2022-12-07T13:29:21.809Z,5.44
2022-12-07T13:31:56.305Z,5.40
2022-12-07T13:34:35.500Z,5.36
2022-12-07T13:37:38.436Z,5.31
2022-12-07T13:40:21.414Z,5.26
2022-12-07T13:43:02.415Z,5.22
2022-12-07T13:45:50.033Z,5.15
2022-12-07T13:48:34.638Z,5.10
2022-12-07T13:51:05.518Z,5.07
2022-12-07T13:53:34.280Z,5.05
2022-12-07T13:56:03.312Z,5.03
2022-12-07T13:58:37.578Z,5.05
2022-12-07T14:01:07.076Z,5.05
2022-12-07T14:03:37.901Z,5.00
2022-12-07T14:06:30.901Z,5.02
2022-12-07T14:09:18.705Z,5.02
2022-12-07T14:11:50.942Z,5.01
2022-12-07T14:14:24.092Z,4.94
2022-12-07T14:17:25.012Z,4.85
2022-12-07T14:19:58.190Z,4.80
2022-12-07T14:22:30.724Z,4.80
2022-12-07T14:25:20.102Z,4.80
2022-12-07T14:27:59.169Z,4.77
2022-12-07T14:30:35.757Z,4.72
2022-12-07T14:33:06.863Z,4.71
2022-12-07T14:35:38.779Z,4.66
2022-12-07T14:38:09.483Z,4.63
2022-12-07T14:40:40.393Z,4.54
2022-12-07T14:43:18.411Z,4.44
2022-12-07T14:45:47.984Z,4.35
2022-12-07T14:53:57.496Z,4.22
2022-12-07T14:56:26.988Z,4.25
2022-12-07T14:58:55.611Z,4.29
2022-12-07T15:01:24.930Z,4.34
2022-12-07T15:03:54.026Z,4.33
2022-12-07T15:06:22.766Z,4.34
2022-12-07T15:08:51.698Z,4.30
2022-12-07T15:11:20.906Z,4.24
2022-12-07T15:14:08.376Z,4.20
2022-12-07T15:17:06.887Z,4.16
2022-12-07T15:19:29.808Z,4.09
2022-12-07T15:22:01.148Z,4.02
2022-12-07T15:24:30.583Z,3.99
2022-12-07T15:26:59.469Z,3.98
2022-12-07T15:29:29.040Z,3.97
2022-12-07T15:31:58.474Z,3.96
2022-12-07T15:34:36.437Z,3.94
2022-12-07T15:37:07.629Z,3.93
2022-12-07T15:39:54.590Z,3.90
2022-12-07T15:42:42.183Z,3.84
2022-12-07T15:45:14.998Z,3.77
2022-12-07T15:51:21.647Z,3.74
2022-12-07T15:54:18.644Z,3.72
2022-12-07T15:57:09.008Z,3.68
2022-12-07T16:00:26.882Z,3.70
2022-12-07T16:03:29.037Z,3.71
2022-12-07T16:06:31.089Z,3.71
2022-12-07T16:09:18.417Z,3.73
2022-12-07T16:12:21.133Z,3.74
2022-12-07T16:15:24.256Z,3.71
2022-12-07T16:18:19.155Z,3.67
2022-12-07T16:21:23.285Z,3.63
2022-12-07T16:24:31.442Z,3.58
2022-12-07T16:27:36.415Z,3.56
2022-12-07T16:30:28.429Z,3.58
2022-12-07T16:33:21.486Z,3.60
2022-12-07T16:36:40.366Z,3.60
2022-12-07T16:43:17.452Z,3.59
2022-12-07T16:46:11.886Z,3.54
2022-12-07T16:52:19.778Z,3.50
2022-12-07T16:55:14.007Z,3.47
2022-12-07T16:58:06.390Z,3.51
2022-12-07T17:01:01.651Z,3.53
2022-12-07T17:03:58.292Z,3.52
2022-12-07T17:07:00.305Z,3.48
2022-12-07T17:09:56.999Z,3.44
2022-12-07T17:12:47.242Z,3.39
2022-12-07T17:15:52.294Z,3.33
2022-12-07T17:18:45.810Z,3.26
2022-12-07T17:21:38.984Z,3.21
2022-12-07T17:24:40.710Z,3.19
2022-12-07T17:27:32.369Z,3.18
2022-12-07T17:30:32.202Z,3.21
2022-12-07T17:33:26.528Z,3.25
2022-12-07T17:36:33.519Z,3.31
2022-12-07T17:39:25.370Z,3.37
2022-12-07T17:42:43.311Z,3.45
2022-12-07T17:45:43.606Z,3.47
2022-12-07T17:48:41.340Z,3.49
2022-12-07T17:51:45.925Z,3.51
2022-12-07T17:54:34.361Z,3.56
2022-12-07T17:57:25.148Z,3.61
2022-12-07T18:00:26.015Z,3.66
2022-12-07T18:03:17.762Z,3.73
2022-12-07T18:06:19.027Z,3.75
2022-12-07T18:09:11.392Z,3.74
2022-12-07T18:12:02.912Z,3.74
2022-12-07T18:14:49.352Z,3.70
2022-12-07T18:17:45.118Z,3.67
2022-12-07T18:20:32.783Z,3.65
2022-12-07T18:23:35.812Z,3.67
2022-12-07T18:26:31.359Z,3.68
2022-12-07T18:29:34.943Z,3.70
2022-12-07T18:32:24.782Z,3.71
2022-12-07T18:35:18.798Z,3.70
2022-12-07T18:38:14.590Z,3.65
2022-12-07T18:41:10.919Z,3.57
2022-12-07T18:44:05.551Z,3.49
2022-12-07T18:47:03.232Z,3.41
2022-12-07T18:49:52.659Z,3.33
2022-12-07T18:52:55.434Z,3.30
2022-12-07T18:55:43.396Z,3.28
2022-12-07T18:58:36.014Z,3.28
2022-12-07T19:01:24.059Z,3.32
2022-12-07T19:04:16.786Z,3.32
2022-12-07T19:07:06.598Z,3.30
2022-12-07T19:10:11.224Z,3.22
2022-12-07T19:13:10.757Z,3.15
2022-12-07T19:16:03.966Z,3.05
2022-12-07T19:18:59.101Z,3.01
2022-12-07T19:22:00.106Z,3.01
2022-12-07T19:24:53.627Z,3.04
2022-12-07T19:27:49.098Z,3.06
2022-12-07T19:30:39.635Z,3.13
2022-12-07T19:33:48.737Z,3.19
2022-12-07T19:36:39.921Z,3.26
2022-12-07T19:39:40.648Z,3.30
2022-12-07T19:42:33.184Z,3.32
2022-12-07T19:45:24.728Z,3.31
2022-12-07T19:48:14.602Z,3.31
2022-12-07T19:51:17.285Z,3.30
2022-12-07T19:54:06.064Z,3.26
2022-12-07T20:00:31.215Z,3.29
2022-12-07T20:06:58.256Z,3.31
2022-12-07T20:10:21.648Z,3.31
2022-12-07T20:13:59.138Z,3.25
2022-12-07T20:20:11.549Z,3.21
2022-12-07T20:26:42.013Z,3.08
2022-12-07T20:29:38.517Z,3.10
2022-12-07T20:32:26.559Z,3.17
2022-12-07T20:35:25.605Z,3.23
2022-12-07T20:38:12.861Z,3.29
2022-12-07T20:41:16.701Z,3.34
2022-12-07T20:44:04.729Z,3.40
2022-12-07T20:47:01.166Z,3.45
2022-12-07T20:49:48.214Z,3.51
2022-12-07T20:52:50.159Z,3.54
2022-12-07T20:55:37.938Z,3.56
2022-12-07T20:58:40.945Z,3.59
2022-12-07T21:01:28.250Z,3.62
2022-12-07T21:04:39.753Z,3.65
2022-12-07T21:07:35.666Z,3.67
2022-12-07T21:10:41.887Z,3.68
2022-12-07T21:13:41.074Z,3.69
2022-12-07T21:16:39.321Z,3.67
2022-12-07T21:19:31.612Z,3.64
2022-12-07T21:22:25.489Z,3.59
2022-12-07T21:25:21.756Z,3.56
2022-12-07T21:28:31.481Z,3.54
2022-12-07T21:31:17.181Z,3.52
2022-12-07T21:33:48.034Z,3.53
2022-12-07T21:36:20.987Z,3.55
2022-12-07T21:38:50.910Z,3.58
2022-12-07T21:41:20.808Z,3.62
2022-12-07T21:43:50.048Z,3.59
2022-12-07T21:46:20.798Z,3.58
2022-12-07T21:48:55.689Z,3.55
2022-12-07T21:51:28.022Z,3.50
2022-12-07T21:53:59.475Z,3.43
2022-12-07T21:56:31.746Z,3.36
2022-12-07T21:59:07.997Z,3.31
2022-12-07T22:01:39.260Z,3.29
2022-12-07T22:04:11.365Z,3.26
2022-12-07T22:06:40.443Z,3.26
2022-12-07T22:09:09.923Z,3.25
2022-12-07T22:11:38.783Z,3.21
2022-12-07T22:14:27.090Z,3.18
2022-12-07T22:16:58.096Z,3.17
2022-12-07T22:19:26.877Z,3.12
2022-12-07T22:21:55.687Z,3.08
2022-12-07T22:24:24.632Z,3.06
2022-12-07T22:26:53.221Z,3.05
2022-12-07T22:29:22.160Z,3.02
2022-12-07T22:31:53.937Z,3.00
2022-12-07T22:34:23.858Z,2.99
2022-12-07T22:36:52.705Z,3.02
2022-12-07T22:39:21.347Z,3.03
2022-12-07T22:41:51.426Z,3.04
2022-12-07T22:44:21.426Z,3.04
2022-12-07T22:46:50.161Z,3.04
2022-12-07T22:49:24.068Z,3.03
2022-12-07T22:51:57.890Z,3.04
2022-12-07T22:54:27.456Z,3.06
2022-12-07T22:56:56.441Z,3.09
2022-12-07T22:59:28.330Z,3.14
2022-12-07T23:01:57.049Z,3.20
2022-12-07T23:04:26.103Z,3.24
2022-12-07T23:06:58.797Z,3.28
2022-12-07T23:09:27.852Z,3.28
2022-12-07T23:12:15.354Z,3.23
2022-12-07T23:14:44.179Z,3.18
2022-12-07T23:17:13.060Z,3.14
2022-12-07T23:19:42.199Z,3.09
2022-12-07T23:22:11.350Z,3.03
2022-12-07T23:24:40.030Z,3.04
2022-12-07T23:27:08.841Z,3.09
2022-12-07T23:29:37.505Z,3.16
2022-12-07T23:32:06.256Z,3.22
2022-12-07T23:34:34.927Z,3.23
2022-12-07T23:37:04.107Z,3.23
2022-12-07T23:39:33.295Z,3.20
2022-12-07T23:42:02.629Z,3.15
2022-12-07T23:44:31.547Z,3.12
2022-12-07T23:47:00.515Z,3.05
2022-12-07T23:49:32.398Z,2.99
2022-12-07T23:52:01.617Z,2.95
2022-12-07T23:54:30.396Z,2.89
2022-12-07T23:56:59.216Z,2.84
2022-12-07T23:59:27.882Z,2.83
